createdAt,value
2022-11-08T00:00:49.511Z,6.20
2022-11-08T00:03:17.835Z,5.63
2022-11-08T00:06:03.319Z,6.00
2022-11-08T00:08:48.730Z,9.85
2022-11-08T00:11:34.523Z,4.93
2022-11-08T00:14:03.105Z,6.13
2022-11-08T00:16:32.867Z,4.05
2022-11-08T00:19:01.469Z,4.20
2022-11-08T00:21:29.738Z,3.40
2022-11-08T00:23:57.967Z,7.70
2022-11-08T00:26:26.277Z,5.03
2022-11-08T00:28:54.593Z,4.97
2022-11-08T00:31:22.896Z,8.32
2022-11-08T00:33:52.758Z,8.13
2022-11-08T00:36:21.033Z,6.63
2022-11-08T00:38:49.413Z,8.75
2022-11-08T00:41:17.942Z,5.78
2022-11-08T00:43:46.199Z,7.05
2022-11-08T00:46:14.545Z,6.45
2022-11-08T00:48:42.772Z,6.67
2022-11-08T00:51:13.719Z,7.22
2022-11-08T00:53:42.454Z,8.07
2022-11-08T00:56:13.488Z,10.27
2022-11-08T00:58:43.994Z,6.38
2022-11-08T01:01:14.394Z,6.30
2022-11-08T01:03:42.733Z,8.55
2022-11-08T01:06:14.266Z,8.93
2022-11-08T01:08:43.189Z,6.63
2022-11-08T01:11:15.396Z,8.52
2022-11-08T01:13:43.683Z,8.38
2022-11-08T01:16:15.163Z,7.50
2022-11-08T01:18:44.108Z,10.57
2022-11-08T01:21:14.433Z,7.70
2022-11-08T01:23:43.873Z,12.40
2022-11-08T01:26:14.842Z,6.40
2022-11-08T01:28:43.492Z,10.18
2022-11-08T01:31:14.049Z,8.75
2022-11-08T01:33:47.010Z,10.77
2022-11-08T01:36:21.761Z,11.18
2022-11-08T01:38:50.386Z,9.95
2022-11-08T01:41:19.722Z,10.02
2022-11-08T01:43:48.973Z,9.60
2022-11-08T01:46:36.309Z,7.15
2022-11-08T01:49:19.058Z,11.15
2022-11-08T01:51:55.563Z,8.27
2022-11-08T01:54:28.134Z,9.43
2022-11-08T01:56:57.601Z,8.95
2022-11-08T01:59:26.454Z,8.20
2022-11-08T02:01:54.937Z,7.63
2022-11-08T02:04:23.540Z,7.53
2022-11-08T02:06:53.608Z,8.20
2022-11-08T02:09:22.119Z,7.72
2022-11-08T02:11:50.901Z,11.55
2022-11-08T02:14:19.424Z,7.50
2022-11-08T02:16:47.668Z,6.60
2022-11-08T02:19:26.181Z,8.95
2022-11-08T02:21:59.339Z,6.65
2022-11-08T02:24:29.053Z,6.73
2022-11-08T02:26:58.787Z,7.40
2022-11-08T02:29:30.608Z,5.53
2022-11-08T02:31:59.665Z,8.95
2022-11-08T02:34:31.700Z,8.48
2022-11-08T02:37:00.947Z,8.68
2022-11-08T02:39:30.800Z,8.80
2022-11-08T02:41:59.054Z,8.75
2022-11-08T02:44:27.303Z,9.23
2022-11-08T02:46:55.759Z,10.25
2022-11-08T02:49:23.999Z,9.82
2022-11-08T02:51:54.403Z,12.05
2022-11-08T02:54:22.896Z,6.22
2022-11-08T02:56:52.534Z,7.57
2022-11-08T02:59:20.871Z,8.75
2022-11-08T03:01:49.759Z,10.63
2022-11-08T03:04:18.068Z,8.43
2022-11-08T03:06:46.292Z,9.70
2022-11-08T03:09:14.712Z,9.32
2022-11-08T03:11:43.096Z,10.25
2022-11-08T03:14:12.745Z,8.95
2022-11-08T03:16:40.988Z,9.00
2022-11-08T03:19:09.223Z,7.35
2022-11-08T03:21:37.888Z,6.78
2022-11-08T03:24:06.725Z,9.45
2022-11-08T03:26:35.100Z,9.68
2022-11-08T03:29:03.523Z,11.75
2022-11-08T03:31:33.150Z,12.43
2022-11-08T03:34:01.380Z,9.57
2022-11-08T03:36:29.576Z,10.38
2022-11-08T03:38:57.846Z,11.63
2022-11-08T03:41:26.386Z,13.57
2022-11-08T03:43:54.642Z,9.02
2022-11-08T03:46:22.943Z,11.68
2022-11-08T03:48:52.565Z,10.77
2022-11-08T03:51:21.898Z,17.05
2022-11-08T03:53:50.132Z,12.50
2022-11-08T03:56:18.377Z,9.18
2022-11-08T03:58:46.645Z,12.18
2022-11-08T04:01:14.933Z,12.27
2022-11-08T04:03:43.258Z,12.15
2022-11-08T04:06:12.992Z,8.98
2022-11-08T04:08:41.234Z,10.60
2022-11-08T04:11:26.545Z,11.30
2022-11-08T04:14:11.839Z,8.25
2022-11-08T04:16:40.163Z,12.52
2022-11-08T04:19:25.992Z,12.73
2022-11-08T04:21:57.240Z,8.07
2022-11-08T04:24:25.514Z,11.77
2022-11-08T04:26:53.758Z,11.10
2022-11-08T04:29:22.217Z,7.85
2022-11-08T04:31:50.461Z,10.32
2022-11-08T04:34:18.785Z,6.63
2022-11-08T04:36:47.080Z,8.50
2022-11-08T04:39:16.882Z,10.05
2022-11-08T04:41:45.124Z,9.10
2022-11-08T04:44:15.655Z,12.40
2022-11-08T04:46:43.960Z,12.38
2022-11-08T04:49:12.204Z,10.43
2022-11-08T04:51:40.421Z,8.52
2022-11-08T04:54:08.666Z,10.70
2022-11-08T04:56:38.488Z,8.88
2022-11-08T04:59:11.896Z,8.57
2022-11-08T05:01:40.810Z,12.38
2022-11-08T05:04:09.244Z,9.65
2022-11-08T05:06:37.657Z,10.18
2022-11-08T05:09:05.915Z,15.02
2022-11-08T05:11:34.146Z,9.35
2022-11-08T05:14:03.842Z,9.40
2022-11-08T05:16:33.070Z,7.63
2022-11-08T05:19:01.549Z,6.97
2022-11-08T05:21:47.659Z,6.65
2022-11-08T05:24:18.179Z,5.38
2022-11-08T05:26:49.091Z,6.22
2022-11-08T05:29:18.731Z,8.00
2022-11-08T05:31:46.996Z,5.47
2022-11-08T05:34:15.787Z,8.45
2022-11-08T05:36:44.023Z,10.10
2022-11-08T05:39:12.258Z,9.65
2022-11-08T05:41:40.518Z,8.63
2022-11-08T05:44:08.779Z,5.82
2022-11-08T05:46:38.519Z,7.07
2022-11-08T05:49:06.886Z,8.20
2022-11-08T05:51:36.308Z,7.07
2022-11-08T05:54:04.622Z,10.00
2022-11-08T05:56:32.897Z,7.72
2022-11-08T05:59:01.147Z,6.90
2022-11-08T06:01:29.735Z,7.78
2022-11-08T06:03:59.415Z,8.93
2022-11-08T06:06:27.730Z,5.33
2022-11-08T06:08:56.016Z,8.65
2022-11-08T06:11:26.282Z,5.07
2022-11-08T06:13:55.784Z,5.18
2022-11-08T06:16:25.117Z,4.78
2022-11-08T06:18:53.569Z,6.75
2022-11-08T06:21:23.949Z,6.82
2022-11-08T06:23:54.752Z,7.05
2022-11-08T06:26:23.574Z,6.13
2022-11-08T06:28:52.157Z,5.65
2022-11-08T06:31:20.398Z,3.25
2022-11-08T06:33:48.804Z,4.50
2022-11-08T06:36:17.380Z,4.72
2022-11-08T06:38:47.104Z,3.40
2022-11-08T06:41:19.997Z,5.57
2022-11-08T06:43:49.237Z,5.63
2022-11-08T06:46:17.637Z,4.63
2022-11-08T06:48:46.078Z,1.95
2022-11-08T06:51:14.969Z,5.07
2022-11-08T06:53:43.610Z,4.22
2022-11-08T06:56:13.846Z,6.13
2022-11-08T06:58:42.234Z,3.75
2022-11-08T07:01:13.518Z,3.60
2022-11-08T07:03:41.918Z,5.13
2022-11-08T07:06:10.529Z,4.63
2022-11-08T07:08:39.054Z,3.40
2022-11-08T07:11:07.781Z,4.15
2022-11-08T07:13:37.528Z,6.13
2022-11-08T07:16:06.322Z,6.60
2022-11-08T07:18:34.620Z,6.03
2022-11-08T07:21:03.526Z,5.50
2022-11-08T07:23:32.327Z,9.02
2022-11-08T07:26:03.622Z,5.90
2022-11-08T07:28:32.209Z,8.68
2022-11-08T07:31:04.367Z,6.93
2022-11-08T07:33:32.897Z,5.80
2022-11-08T07:36:01.237Z,3.80
2022-11-08T07:38:29.523Z,4.63
2022-11-08T07:40:59.220Z,4.95
2022-11-08T07:43:28.849Z,6.45
2022-11-08T07:45:58.671Z,4.38
2022-11-08T07:48:29.600Z,6.10
2022-11-08T07:50:57.838Z,6.65
2022-11-08T07:53:26.134Z,5.40
2022-11-08T07:55:55.341Z,11.63
2022-11-08T07:58:23.711Z,10.00
2022-11-08T08:00:52.160Z,7.47
2022-11-08T08:03:21.157Z,7.17
2022-11-08T08:06:00.537Z,6.65
2022-11-08T08:08:31.183Z,5.53
2022-11-08T08:11:01.043Z,10.90
2022-11-08T08:13:29.870Z,4.63
2022-11-08T08:16:00.277Z,6.90
2022-11-08T08:18:28.614Z,5.53
2022-11-08T08:20:58.282Z,4.82
2022-11-08T08:23:26.566Z,5.00
2022-11-08T08:25:54.837Z,5.20
2022-11-08T08:28:23.156Z,6.22
2022-11-08T08:30:51.420Z,3.75
2022-11-08T08:33:29.127Z,4.68
2022-11-08T08:36:02.153Z,3.80
2022-11-08T08:38:31.342Z,3.50
2022-11-08T08:40:59.935Z,2.38
2022-11-08T08:43:28.768Z,5.07
2022-11-08T08:46:00.735Z,3.20
2022-11-08T08:48:29.461Z,4.40
2022-11-08T08:50:59.574Z,1.83
2022-11-08T08:53:28.119Z,3.30
2022-11-08T08:55:56.609Z,2.47
2022-11-08T08:58:25.325Z,4.75
2022-11-08T09:03:42.162Z,3.73
2022-11-08T09:06:12.134Z,2.80
2022-11-08T09:08:40.456Z,3.30
2022-11-08T09:11:08.694Z,4.47
2022-11-08T09:13:37.316Z,3.50
2022-11-08T09:16:08.043Z,5.97
2022-11-08T09:18:36.533Z,3.20
2022-11-08T09:21:04.947Z,3.30
2022-11-08T09:23:34.666Z,3.10
2022-11-08T09:26:05.093Z,3.70
2022-11-08T09:28:34.531Z,4.15
2022-11-08T09:31:05.062Z,3.25
2022-11-08T09:33:33.611Z,6.97
2022-11-08T09:36:02.482Z,7.88
2022-11-08T09:38:31.136Z,4.30
2022-11-08T09:41:17.673Z,2.40
2022-11-08T09:44:05.641Z,2.40
2022-11-08T09:46:44.284Z,3.95
2022-11-08T09:49:19.517Z,4.22
2022-11-08T09:51:48.504Z,7.70
2022-11-08T09:54:21.877Z,4.78
2022-11-08T09:56:54.565Z,6.50
2022-11-08T09:59:33.729Z,4.27
2022-11-08T10:02:02.302Z,3.50
2022-11-08T10:04:33.211Z,5.50
2022-11-08T10:07:23.971Z,4.90
2022-11-08T10:10:28.895Z,5.47
2022-11-08T10:13:06.141Z,5.78
2022-11-08T10:15:43.293Z,5.27
2022-11-08T10:18:39.490Z,5.82
2022-11-08T10:21:17.250Z,8.57
2022-11-08T10:23:47.629Z,6.95
2022-11-08T10:26:22.853Z,5.97
2022-11-08T10:29:00.748Z,7.18
2022-11-08T10:31:33.170Z,7.53
2022-11-08T10:34:04.372Z,5.82
2022-11-08T10:36:38.650Z,5.47
2022-11-08T10:39:15.198Z,6.63
2022-11-08T10:41:47.875Z,5.63
2022-11-08T10:44:21.057Z,7.85
2022-11-08T10:46:50.959Z,8.25
2022-11-08T10:49:22.136Z,4.95
2022-11-08T10:51:54.006Z,5.03
2022-11-08T10:54:48.652Z,4.90
2022-11-08T10:57:18.728Z,7.10
2022-11-08T10:59:48.459Z,6.63
2022-11-08T11:02:23.987Z,8.02
2022-11-08T11:04:53.176Z,4.85
2022-11-08T11:07:35.014Z,7.45
2022-11-08T11:10:24.818Z,5.85
2022-11-08T11:13:01.262Z,5.20
2022-11-08T11:15:38.036Z,5.63
2022-11-08T11:18:18.541Z,5.97
2022-11-08T11:21:00.270Z,5.22
2022-11-08T11:23:35.542Z,6.80
2022-11-08T11:26:04.425Z,6.05
2022-11-08T11:28:32.858Z,5.00
2022-11-08T11:31:05.545Z,6.63
2022-11-08T11:33:34.091Z,8.75
2022-11-08T11:36:13.301Z,5.97
2022-11-08T11:38:48.965Z,7.15
2022-11-08T11:41:20.340Z,7.13
2022-11-08T11:43:54.974Z,5.55
2022-11-08T11:46:31.395Z,4.83
2022-11-08T11:49:02.500Z,6.53
2022-11-08T11:51:31.860Z,3.63
2022-11-08T11:54:01.458Z,3.65
2022-11-08T11:56:47.394Z,6.03
2022-11-08T11:59:48.801Z,3.20
2022-11-08T12:03:06.799Z,5.10
2022-11-08T12:05:47.250Z,3.90
2022-11-08T12:08:24.092Z,2.58
2022-11-08T12:11:14.840Z,3.95
2022-11-08T12:13:57.014Z,3.20
2022-11-08T12:16:30.909Z,1.33
2022-11-08T12:19:19.904Z,2.80
2022-11-08T12:21:57.462Z,3.00
2022-11-08T12:24:46.118Z,1.67
2022-11-08T12:27:26.838Z,2.17
2022-11-08T12:30:03.345Z,3.58
2022-11-08T12:33:00.606Z,5.15
2022-11-08T12:35:41.590Z,2.78
2022-11-08T12:38:21.522Z,2.42
2022-11-08T12:40:56.019Z,3.90
2022-11-08T12:43:46.044Z,3.38
2022-11-08T12:46:18.419Z,2.92
2022-11-08T12:49:20.470Z,2.35
2022-11-08T12:52:05.687Z,3.63
2022-11-08T12:54:37.863Z,3.00
2022-11-08T12:57:11.251Z,3.40
2022-11-08T12:59:43.176Z,2.53
2022-11-08T13:02:19.656Z,3.20
2022-11-08T13:04:56.149Z,4.20
2022-11-08T13:07:37.606Z,3.13
2022-11-08T13:10:13.941Z,3.13
2022-11-08T13:12:49.715Z,6.18
2022-11-08T13:15:21.025Z,3.10
2022-11-08T13:18:24.251Z,2.63
2022-11-08T13:20:53.697Z,4.13
2022-11-08T13:23:31.582Z,3.10
2022-11-08T13:26:19.091Z,3.10
2022-11-08T13:28:47.612Z,2.55
2022-11-08T13:31:39.097Z,1.30
2022-11-08T13:34:46.065Z,3.50
2022-11-08T13:37:41.505Z,6.47
2022-11-08T13:40:40.955Z,4.40
2022-11-08T13:43:25.371Z,4.65
2022-11-08T13:45:53.977Z,6.13
2022-11-08T13:48:41.614Z,2.65
2022-11-08T13:51:27.199Z,3.42
2022-11-08T13:53:58.193Z,3.22
2022-11-08T13:56:44.505Z,5.72
2022-11-08T13:59:49.846Z,3.47
2022-11-08T14:02:45.238Z,3.80
2022-11-08T14:05:27.650Z,3.88
2022-11-08T14:08:10.911Z,5.40
2022-11-08T14:10:51.348Z,4.95
2022-11-08T14:13:29.371Z,5.80
2022-11-08T14:16:02.813Z,4.20
2022-11-08T14:18:35.026Z,3.20
2022-11-08T14:21:05.209Z,3.25
2022-11-08T14:23:36.691Z,1.98
2022-11-08T14:26:08.373Z,1.85
2022-11-08T14:28:40.641Z,4.38
2022-11-08T14:31:24.749Z,4.32
2022-11-08T14:33:53.818Z,3.83
2022-11-08T14:36:23.826Z,3.20
2022-11-08T14:39:05.270Z,4.03
2022-11-08T14:41:35.453Z,4.28
2022-11-08T14:44:06.028Z,4.97
2022-11-08T14:46:38.093Z,3.20
2022-11-08T14:49:11.945Z,3.47
2022-11-08T14:51:40.560Z,5.28
2022-11-08T14:54:18.028Z,5.05
2022-11-08T14:56:46.349Z,3.13
2022-11-08T14:59:16.303Z,5.67
2022-11-08T15:01:48.506Z,3.43
2022-11-08T15:04:19.660Z,3.45
2022-11-08T15:06:52.637Z,1.40
2022-11-08T15:09:25.484Z,1.75
2022-11-08T15:11:57.104Z,2.47
2022-11-08T15:14:29.415Z,3.13
2022-11-08T15:17:03.061Z,3.42
2022-11-08T15:19:37.158Z,2.67
2022-11-08T15:22:25.115Z,2.10
2022-11-08T15:25:02.075Z,2.77
2022-11-08T15:27:30.657Z,2.97
2022-11-08T15:30:05.592Z,2.13
2022-11-08T15:32:38.077Z,2.55
2022-11-08T15:35:07.571Z,2.97
2022-11-08T15:37:38.109Z,2.10
2022-11-08T15:40:18.812Z,3.72
2022-11-08T15:42:48.911Z,2.65
2022-11-08T15:45:26.912Z,2.85
2022-11-08T15:48:02.639Z,3.47
2022-11-08T15:50:32.342Z,3.13
2022-11-08T15:53:05.083Z,5.07
2022-11-08T15:55:37.439Z,3.92
2022-11-08T15:58:10.580Z,4.15
2022-11-08T16:00:46.940Z,3.63
2022-11-08T16:03:15.500Z,1.92
2022-11-08T16:05:43.884Z,2.95
2022-11-08T16:08:17.004Z,1.97
2022-11-08T16:10:49.710Z,3.05
2022-11-08T16:13:21.128Z,4.90
2022-11-08T16:15:50.774Z,2.83
2022-11-08T16:18:20.292Z,3.20
2022-11-08T16:20:48.954Z,2.08
2022-11-08T16:23:18.010Z,3.78
2022-11-08T16:25:50.253Z,3.47
2022-11-08T16:28:22.214Z,3.83
2022-11-08T16:30:52.083Z,3.72
2022-11-08T16:33:22.620Z,4.30
2022-11-08T16:35:51.569Z,4.85
2022-11-08T16:38:25.540Z,4.22
2022-11-08T16:40:56.787Z,2.80
2022-11-08T16:43:25.180Z,5.10
2022-11-08T16:46:05.483Z,3.20
2022-11-08T16:48:36.043Z,3.70
2022-11-08T16:51:07.084Z,6.15
2022-11-08T16:53:37.655Z,4.33
2022-11-08T16:56:06.006Z,5.75
2022-11-08T16:58:34.525Z,3.30
2022-11-08T17:01:10.254Z,3.70
2022-11-08T17:03:39.046Z,3.07
2022-11-08T17:06:08.049Z,3.78
2022-11-08T17:08:36.348Z,4.38
2022-11-08T17:11:04.571Z,2.90
2022-11-08T17:13:37.534Z,5.53
2022-11-08T17:16:11.915Z,4.23
2022-11-08T17:18:40.409Z,3.67
2022-11-08T17:21:37.887Z,6.20
2022-11-08T17:23:58.600Z,5.38
2022-11-08T17:26:26.904Z,6.72
2022-11-08T17:28:56.528Z,3.60
2022-11-08T17:31:26.518Z,3.40
2022-11-08T17:33:56.060Z,4.97
2022-11-08T17:36:24.582Z,3.72
2022-11-08T17:38:52.892Z,4.38
2022-11-08T17:41:21.227Z,4.68
2022-11-08T17:43:50.230Z,4.30
2022-11-08T17:46:19.090Z,4.32
2022-11-08T17:48:49.293Z,4.47
2022-11-08T17:51:18.308Z,3.95
2022-11-08T17:53:47.102Z,2.28
2022-11-08T17:56:16.380Z,8.73
2022-11-08T17:58:44.873Z,10.80
2022-11-08T18:01:13.971Z,9.05
2022-11-08T18:03:42.516Z,7.03
2022-11-08T18:06:14.693Z,7.93
2022-11-08T18:08:43.087Z,6.72
2022-11-08T18:11:11.376Z,6.22
2022-11-08T18:13:39.680Z,7.50
2022-11-08T18:16:09.822Z,9.75
2022-11-08T18:18:38.824Z,12.52
2022-11-08T18:21:07.544Z,10.15
2022-11-08T18:23:37.772Z,14.80
2022-11-08T18:26:06.402Z,10.68
2022-11-08T18:28:35.017Z,8.55
2022-11-08T18:31:08.087Z,8.85
2022-11-08T18:33:37.677Z,5.47
2022-11-08T18:36:07.088Z,5.55
2022-11-08T18:38:39.230Z,4.55
2022-11-08T18:41:09.663Z,6.85
2022-11-08T18:43:38.551Z,4.63
2022-11-08T18:46:09.325Z,5.75
2022-11-08T18:48:39.193Z,4.50
2022-11-08T18:51:12.881Z,3.80
2022-11-08T18:53:42.874Z,4.80
2022-11-08T18:56:12.100Z,7.82
2022-11-08T18:58:41.207Z,6.28
2022-11-08T19:01:09.861Z,3.13
2022-11-08T19:03:38.477Z,5.97
2022-11-08T19:06:08.027Z,3.97
2022-11-08T19:08:37.018Z,6.15
2022-11-08T19:11:09.110Z,4.32
2022-11-08T19:13:40.504Z,5.53
2022-11-08T19:16:12.062Z,6.13
2022-11-08T19:18:40.640Z,5.28
2022-11-08T19:21:11.565Z,6.63
2022-11-08T19:23:40.028Z,7.25
2022-11-08T19:26:12.837Z,8.38
2022-11-08T19:28:45.177Z,10.38
2022-11-08T19:31:15.557Z,7.15
2022-11-08T19:33:44.831Z,6.88
2022-11-08T19:36:15.439Z,8.48
2022-11-08T19:38:44.326Z,9.02
2022-11-08T19:41:15.785Z,6.60
2022-11-08T19:43:45.278Z,6.57
2022-11-08T19:46:15.465Z,6.93
2022-11-08T19:48:45.418Z,5.00
2022-11-08T19:51:15.327Z,7.18
2022-11-08T19:53:44.171Z,9.00
2022-11-08T19:56:17.216Z,7.70
2022-11-08T19:58:47.284Z,4.78
2022-11-08T20:01:17.926Z,6.22
2022-11-08T20:03:46.712Z,5.20
2022-11-08T20:06:16.408Z,8.43
2022-11-08T20:08:48.570Z,7.40
2022-11-08T20:11:20.617Z,7.15
2022-11-08T20:13:49.002Z,4.75
2022-11-08T20:16:19.308Z,4.43
2022-11-08T20:18:47.799Z,6.30
2022-11-08T20:21:17.463Z,4.65
2022-11-08T20:23:46.584Z,4.90
2022-11-08T20:26:19.295Z,4.65
2022-11-08T20:28:55.848Z,5.45
2022-11-08T20:31:25.920Z,5.50
2022-11-08T20:34:01.480Z,6.22
2022-11-08T20:36:34.777Z,6.68
2022-11-08T20:39:06.801Z,5.27
2022-11-08T20:41:38.758Z,6.40
2022-11-08T20:44:07.813Z,5.57
2022-11-08T20:46:38.275Z,9.90
2022-11-08T20:49:07.211Z,4.30
2022-11-08T20:51:35.949Z,6.63
2022-11-08T20:54:04.525Z,5.07
2022-11-08T20:56:32.852Z,9.03
2022-11-08T20:59:03.446Z,5.13
2022-11-08T21:01:34.381Z,8.68
2022-11-08T21:04:04.149Z,6.38
2022-11-08T21:06:36.071Z,8.73
2022-11-08T21:09:30.105Z,6.32
2022-11-08T21:11:54.416Z,8.68
2022-11-08T21:14:24.772Z,7.65
2022-11-08T21:19:42.560Z,7.07
2022-11-08T21:22:17.093Z,7.03
2022-11-08T21:24:49.651Z,7.28
2022-11-08T21:27:18.482Z,9.43
2022-11-08T21:29:48.200Z,5.90
2022-11-08T21:32:16.604Z,9.93
2022-11-08T21:34:46.529Z,8.32
2022-11-08T21:37:15.577Z,4.05
2022-11-08T21:39:44.326Z,6.35
2022-11-08T21:42:14.115Z,9.75
2022-11-08T21:44:42.530Z,9.32
2022-11-08T21:47:13.020Z,11.23
2022-11-08T21:49:41.402Z,10.25
2022-11-08T21:52:09.828Z,9.20
2022-11-08T21:54:38.153Z,9.23
2022-11-08T21:57:06.669Z,7.78
2022-11-08T21:59:35.021Z,6.45
2022-11-08T22:02:03.553Z,6.07
2022-11-08T22:04:33.385Z,7.87
2022-11-08T22:07:01.677Z,6.60
2022-11-08T22:09:30.157Z,6.10
2022-11-08T22:11:58.380Z,6.20
2022-11-08T22:14:26.769Z,6.30
2022-11-08T22:16:55.372Z,3.35
2022-11-08T22:19:23.711Z,4.82
2022-11-08T22:21:53.403Z,7.70
2022-11-08T22:24:21.823Z,10.10
2022-11-08T22:26:51.599Z,8.65
2022-11-08T22:29:20.363Z,7.57
2022-11-08T22:31:48.752Z,6.03
2022-11-08T22:34:17.476Z,7.43
2022-11-08T22:36:46.685Z,5.57
2022-11-08T22:39:18.495Z,6.30
2022-11-08T22:41:48.320Z,8.63
2022-11-08T22:44:17.543Z,3.97
2022-11-08T22:46:46.908Z,8.35
2022-11-08T22:49:16.116Z,7.70
2022-11-08T22:51:45.143Z,7.57
2022-11-08T22:54:13.487Z,8.95
2022-11-08T22:56:43.477Z,5.88
2022-11-08T22:59:13.095Z,5.60
2022-11-08T23:01:41.474Z,4.53
2022-11-08T23:04:11.408Z,5.05
2022-11-08T23:06:40.924Z,5.47
2022-11-08T23:09:09.560Z,8.60
2022-11-08T23:11:55.249Z,7.67
2022-11-08T23:14:42.468Z,7.85
2022-11-08T23:17:10.691Z,8.07
2022-11-08T23:19:56.130Z,4.65
2022-11-08T23:22:41.818Z,5.55
2022-11-08T23:25:10.300Z,6.55
2022-11-08T23:27:55.936Z,7.53
2022-11-08T23:30:42.885Z,8.07
2022-11-08T23:33:11.107Z,7.32
2022-11-08T23:36:00.972Z,8.77
2022-11-08T23:38:29.956Z,6.18
2022-11-08T23:41:18.084Z,7.07
2022-11-08T23:44:04.000Z,7.75
2022-11-08T23:46:34.180Z,8.23
2022-11-08T23:49:02.809Z,7.15
2022-11-08T23:51:31.448Z,7.88
2022-11-08T23:53:59.717Z,7.70
2022-11-08T23:56:29.276Z,7.05
2022-11-08T23:58:59.121Z,10.50
